createdAt,value
2018-05-08T00:00:23.916Z,1016.24
2018-05-08T00:01:23.888Z,1016.28
2018-05-08T00:02:23.867Z,1016.29
2018-05-08T00:03:23.840Z,1016.31
2018-05-08T00:04:23.817Z,1016.27
2018-05-08T00:05:23.792Z,1016.25
2018-05-08T00:06:23.770Z,1016.32
2018-05-08T00:07:23.746Z,1016.27
2018-05-08T00:08:23.728Z,1016.30
2018-05-08T00:09:23.699Z,1016.28
2018-05-08T00:10:23.676Z,1016.22
2018-05-08T00:11:23.655Z,1016.25
2018-05-08T00:12:23.633Z,1016.24
2018-05-08T00:13:23.646Z,1016.23
2018-05-08T00:14:23.583Z,1016.24
2018-05-08T00:15:23.561Z,1016.26
2018-05-08T00:16:23.536Z,1016.26
2018-05-08T00:17:23.511Z,1016.24
2018-05-08T00:18:23.488Z,1016.18
2018-05-08T00:19:23.467Z,1016.26
2018-05-08T00:20:23.447Z,1016.22
2018-05-08T00:21:23.423Z,1016.25
2018-05-08T00:22:23.395Z,1016.22
2018-05-08T00:23:23.373Z,1016.24
2018-05-08T00:24:23.349Z,1016.25
2018-05-08T00:25:23.325Z,1016.22
2018-05-08T00:26:23.303Z,1016.26
2018-05-08T00:27:23.277Z,1016.24
2018-05-08T00:28:23.263Z,1016.19
2018-05-08T00:29:23.229Z,1016.26
2018-05-08T00:30:23.208Z,1016.21
2018-05-08T00:31:23.184Z,1016.21
2018-05-08T00:32:23.162Z,1016.24
2018-05-08T00:33:23.136Z,1016.25
2018-05-08T00:34:23.115Z,1016.21
2018-05-08T00:35:23.090Z,1016.20
2018-05-08T00:36:23.065Z,1016.21
2018-05-08T00:37:23.040Z,1016.22
2018-05-08T00:38:23.017Z,1016.21
2018-05-08T00:39:22.998Z,1016.22
2018-05-08T00:40:22.969Z,1016.21
2018-05-08T00:41:22.949Z,1016.25
2018-05-08T00:42:22.923Z,1016.23
2018-05-08T00:43:22.901Z,1016.26
2018-05-08T00:44:22.877Z,1016.25
2018-05-08T00:45:22.860Z,1016.20
2018-05-08T00:46:22.829Z,1016.24
2018-05-08T00:47:22.804Z,1016.17
2018-05-08T00:48:22.780Z,1016.14
2018-05-08T00:49:22.757Z,1016.16
2018-05-08T00:50:22.733Z,1016.15
2018-05-08T00:51:22.711Z,1016.17
2018-05-08T00:52:22.690Z,1016.16
2018-05-08T00:53:22.667Z,1016.15
2018-05-08T00:54:22.641Z,1016.12
2018-05-08T00:55:22.624Z,1016.10
2018-05-08T00:56:22.597Z,1016.17
2018-05-08T00:57:22.571Z,1016.07
2018-05-08T00:58:22.545Z,1016.15
2018-05-08T00:59:22.519Z,1016.10
2018-05-08T01:00:22.495Z,1016.04
2018-05-08T01:01:22.470Z,1016.09
2018-05-08T01:02:22.451Z,1016.05
2018-05-08T01:03:22.426Z,1016.05
2018-05-08T01:04:22.402Z,1016.08
2018-05-08T01:05:22.377Z,1016.06
2018-05-08T01:06:22.354Z,1016.07
2018-05-08T01:07:22.330Z,1016.10
2018-05-08T01:08:22.305Z,1016.06
2018-05-08T01:09:22.280Z,1016.09
2018-05-08T01:10:22.256Z,1016.07
2018-05-08T01:11:23.001Z,1016.08
2018-05-08T01:12:22.214Z,1016.04
2018-05-08T01:13:22.186Z,1016.05
2018-05-08T01:14:22.163Z,1016.06
2018-05-08T01:15:22.138Z,1016.05
2018-05-08T01:16:22.113Z,1016.03
2018-05-08T01:17:22.091Z,1016.00
2018-05-08T01:18:22.066Z,1015.96
2018-05-08T01:19:22.044Z,1015.97
2018-05-08T01:20:22.020Z,1015.95
2018-05-08T01:21:21.995Z,1015.92
2018-05-08T01:22:21.971Z,1015.95
2018-05-08T01:23:21.946Z,1015.92
2018-05-08T01:24:21.925Z,1015.92
2018-05-08T01:25:21.897Z,1015.96
2018-05-08T01:26:21.873Z,1015.94
2018-05-08T01:27:21.849Z,1015.94
2018-05-08T01:28:21.838Z,1015.91
2018-05-08T01:29:21.806Z,1016.00
2018-05-08T01:30:21.777Z,1015.93
2018-05-08T01:31:21.761Z,1015.96
2018-05-08T01:32:21.732Z,1015.95
2018-05-08T01:33:21.707Z,1015.98
2018-05-08T01:34:21.683Z,1015.98
2018-05-08T01:35:21.657Z,1015.99
2018-05-08T01:36:21.633Z,1015.97
2018-05-08T01:37:21.613Z,1015.97
2018-05-08T01:38:21.585Z,1015.97
2018-05-08T01:39:21.562Z,1015.97
2018-05-08T01:40:21.539Z,1015.99
2018-05-08T01:41:21.514Z,1015.95
2018-05-08T01:42:21.494Z,1015.99
2018-05-08T01:43:21.491Z,1015.98
2018-05-08T01:44:21.443Z,1015.98
2018-05-08T01:45:21.418Z,1015.98
2018-05-08T01:46:21.394Z,1015.99
2018-05-08T01:47:21.368Z,1016.03
2018-05-08T01:48:21.345Z,1015.97
2018-05-08T01:49:21.320Z,1015.99
2018-05-08T01:50:21.297Z,1015.97
2018-05-08T01:51:21.275Z,1016.01
2018-05-08T01:52:21.250Z,1015.98
2018-05-08T01:53:21.228Z,1015.99
2018-05-08T01:54:21.204Z,1015.97
2018-05-08T01:55:21.178Z,1016.00
2018-05-08T01:56:21.153Z,1015.96
2018-05-08T01:57:21.127Z,1016.00
2018-05-08T01:58:21.105Z,1015.98
2018-05-08T01:59:21.078Z,1016.00
2018-05-08T02:00:21.054Z,1015.99
2018-05-08T02:01:21.036Z,1015.98
2018-05-08T02:02:21.006Z,1015.98
2018-05-08T02:03:20.984Z,1015.93
2018-05-08T02:04:20.960Z,1015.97
2018-05-08T02:05:20.936Z,1015.95
2018-05-08T02:06:20.916Z,1015.93
2018-05-08T02:07:20.885Z,1015.90
2018-05-08T02:08:20.862Z,1015.90
2018-05-08T02:09:20.839Z,1015.94
2018-05-08T02:10:20.819Z,1015.93
2018-05-08T02:11:20.799Z,1015.90
2018-05-08T02:12:20.767Z,1015.87
2018-05-08T02:13:20.743Z,1015.91
2018-05-08T02:14:20.732Z,1015.92
2018-05-08T02:15:20.696Z,1015.89
2018-05-08T02:16:20.667Z,1015.92
2018-05-08T02:17:20.642Z,1015.94
2018-05-08T02:18:20.619Z,1015.94
2018-05-08T02:19:20.596Z,1015.90
2018-05-08T02:20:20.615Z,1015.93
2018-05-08T02:21:20.548Z,1015.96
2018-05-08T02:22:20.524Z,1015.92
2018-05-08T02:23:20.498Z,1015.91
2018-05-08T02:24:20.481Z,1015.87
2018-05-08T02:25:20.448Z,1015.85
2018-05-08T02:26:20.425Z,1015.86
2018-05-08T02:27:20.410Z,1015.84
2018-05-08T02:28:20.379Z,1015.90
2018-05-08T02:29:20.360Z,1015.88
2018-05-08T02:30:20.331Z,1015.86
2018-05-08T02:31:20.306Z,1015.90
2018-05-08T02:32:20.281Z,1015.86
2018-05-08T02:33:20.256Z,1015.86
2018-05-08T02:34:20.235Z,1015.81
2018-05-08T02:35:20.213Z,1015.85
2018-05-08T02:36:20.182Z,1015.82
2018-05-08T02:37:20.156Z,1015.82
2018-05-08T02:38:20.133Z,1015.78
2018-05-08T02:39:20.111Z,1015.78
2018-05-08T02:40:20.091Z,1015.74
2018-05-08T02:41:20.069Z,1015.73
2018-05-08T02:42:20.037Z,1015.71
2018-05-08T02:43:20.011Z,1015.69
2018-05-08T02:44:19.987Z,1015.63
2018-05-08T02:45:19.961Z,1015.65
2018-05-08T02:46:19.942Z,1015.63
2018-05-08T02:47:19.914Z,1015.62
2018-05-08T02:48:19.891Z,1015.60
2018-05-08T02:49:19.885Z,1015.62
2018-05-08T02:50:19.840Z,1015.64
2018-05-08T02:51:19.818Z,1015.61
2018-05-08T02:52:19.793Z,1015.62
2018-05-08T02:53:19.768Z,1015.62
2018-05-08T02:54:19.743Z,1015.61
2018-05-08T02:55:19.725Z,1015.63
2018-05-08T02:56:19.698Z,1015.63
2018-05-08T02:57:19.668Z,1015.62
2018-05-08T02:58:19.644Z,1015.65
2018-05-08T02:59:19.623Z,1015.62
2018-05-08T03:00:19.601Z,1015.64
2018-05-08T03:01:19.573Z,1015.63
2018-05-08T03:02:19.548Z,1015.61
2018-05-08T03:03:19.524Z,1015.64
2018-05-08T03:04:19.501Z,1015.63
2018-05-08T03:05:19.474Z,1015.64
2018-05-08T03:06:19.450Z,1015.59
2018-05-08T03:07:19.424Z,1015.57
2018-05-08T03:08:19.400Z,1015.56
2018-05-08T03:09:19.375Z,1015.60
2018-05-08T03:10:19.352Z,1015.55
2018-05-08T03:11:19.333Z,1015.54
2018-05-08T03:12:19.307Z,1015.56
2018-05-08T03:13:19.278Z,1015.56
2018-05-08T03:14:19.254Z,1015.59
2018-05-08T03:15:19.227Z,1015.61
2018-05-08T03:16:19.204Z,1015.58
2018-05-08T03:17:19.181Z,1015.58
2018-05-08T03:18:19.154Z,1015.57
2018-05-08T03:19:19.134Z,1015.58
2018-05-08T03:20:19.108Z,1015.58
2018-05-08T03:21:19.082Z,1015.56
2018-05-08T03:22:19.063Z,1015.57
2018-05-08T03:23:19.031Z,1015.56
2018-05-08T03:24:19.008Z,1015.52
2018-05-08T03:25:18.983Z,1015.57
2018-05-08T03:26:18.966Z,1015.53
2018-05-08T03:27:18.934Z,1015.51
2018-05-08T03:28:18.920Z,1015.53
2018-05-08T03:29:18.885Z,1015.51
2018-05-08T03:30:18.861Z,1015.47
2018-05-08T03:31:18.835Z,1015.51
2018-05-08T03:32:18.810Z,1015.53
2018-05-08T03:33:18.789Z,1015.53
2018-05-08T03:34:18.761Z,1015.55
2018-05-08T03:35:18.737Z,1015.54
2018-05-08T03:36:18.715Z,1015.53
2018-05-08T03:37:18.693Z,1015.57
2018-05-08T03:38:18.664Z,1015.55
2018-05-08T03:39:18.640Z,1015.57
2018-05-08T03:40:18.616Z,1015.58
2018-05-08T03:41:18.591Z,1015.58
2018-05-08T03:42:18.567Z,1015.57
2018-05-08T03:43:18.544Z,1015.61
2018-05-08T03:44:18.601Z,1015.63
2018-05-08T03:45:18.495Z,1015.60
2018-05-08T03:46:18.466Z,1015.60
2018-05-08T03:47:18.444Z,1015.61
2018-05-08T03:48:18.420Z,1015.61
2018-05-08T03:49:18.397Z,1015.62
2018-05-08T03:50:18.373Z,1015.60
2018-05-08T03:51:18.347Z,1015.60
2018-05-08T03:52:18.322Z,1015.62
2018-05-08T03:53:18.297Z,1015.62
2018-05-08T03:54:18.272Z,1015.64
2018-05-08T03:55:18.246Z,1015.63
2018-05-08T03:56:18.222Z,1015.61
2018-05-08T03:57:18.214Z,1015.63
2018-05-08T03:58:18.172Z,1015.66
2018-05-08T03:59:18.149Z,1015.65
2018-05-08T04:00:18.137Z,1015.64
2018-05-08T04:01:18.101Z,1015.65
2018-05-08T04:02:18.076Z,1015.65
2018-05-08T04:03:18.049Z,1015.63
2018-05-08T04:04:18.025Z,1015.66
2018-05-08T04:05:18.001Z,1015.71
2018-05-08T04:06:17.976Z,1015.70
2018-05-08T04:07:17.952Z,1015.70
2018-05-08T04:08:17.969Z,1015.71
2018-05-08T04:09:17.903Z,1015.67
2018-05-08T04:10:17.878Z,1015.67
2018-05-08T04:11:17.857Z,1015.69
2018-05-08T04:12:17.833Z,1015.69
2018-05-08T04:13:17.811Z,1015.69
2018-05-08T04:14:17.785Z,1015.72
2018-05-08T04:15:17.760Z,1015.75
2018-05-08T04:16:17.742Z,1015.77
2018-05-08T04:17:17.711Z,1015.82
2018-05-08T04:18:17.687Z,1015.79
2018-05-08T04:19:17.671Z,1015.81
2018-05-08T04:20:17.642Z,1015.79
2018-05-08T04:21:17.622Z,1015.76
2018-05-08T04:22:17.594Z,1015.79
2018-05-08T04:23:17.577Z,1015.83
2018-05-08T04:24:17.554Z,1015.82
2018-05-08T04:25:17.529Z,1015.82
2018-05-08T04:26:17.500Z,1015.80
2018-05-08T04:27:17.475Z,1015.82
2018-05-08T04:28:17.452Z,1015.80
2018-05-08T04:29:17.428Z,1015.81
2018-05-08T04:30:17.405Z,1015.81
2018-05-08T04:31:17.388Z,1015.78
2018-05-08T04:32:17.361Z,1015.80
2018-05-08T04:33:17.338Z,1015.75
2018-05-08T04:34:17.317Z,1015.76
2018-05-08T04:35:17.290Z,1015.73
2018-05-08T04:36:17.270Z,1015.74
2018-05-08T04:37:17.244Z,1015.71
2018-05-08T04:38:17.230Z,1015.70
2018-05-08T04:39:17.199Z,1015.69
2018-05-08T04:40:17.176Z,1015.67
2018-05-08T04:41:17.153Z,1015.68
2018-05-08T04:42:17.130Z,1015.71
2018-05-08T04:43:17.110Z,1015.70
2018-05-08T04:44:17.089Z,1015.71
2018-05-08T04:45:17.082Z,1015.72
2018-05-08T04:46:17.042Z,1015.78
2018-05-08T04:47:17.025Z,1015.77
2018-05-08T04:48:16.997Z,1015.77
2018-05-08T04:49:16.973Z,1015.76
2018-05-08T04:50:16.951Z,1015.76
2018-05-08T04:51:16.931Z,1015.78
2018-05-08T04:52:16.909Z,1015.72
2018-05-08T04:53:16.887Z,1015.74
2018-05-08T04:54:16.864Z,1015.80
2018-05-08T04:55:16.843Z,1015.75
2018-05-08T04:56:16.821Z,1015.77
2018-05-08T04:57:16.803Z,1015.78
2018-05-08T04:58:16.778Z,1015.77
2018-05-08T04:59:16.753Z,1015.74
2018-05-08T05:00:16.732Z,1015.71
2018-05-08T05:01:16.710Z,1015.71
2018-05-08T05:02:16.690Z,1015.70
2018-05-08T05:03:16.673Z,1015.74
2018-05-08T05:04:16.647Z,1015.75
2018-05-08T05:05:16.630Z,1015.76
2018-05-08T05:06:16.603Z,1015.77
2018-05-08T05:07:16.585Z,1015.78
2018-05-08T05:08:16.560Z,1015.77
2018-05-08T05:09:16.537Z,1015.84
2018-05-08T05:10:16.519Z,1015.93
2018-05-08T05:11:16.501Z,1016.05
2018-05-08T05:12:16.474Z,1016.15
2018-05-08T05:13:16.464Z,1016.22
2018-05-08T05:14:16.432Z,1016.22
2018-05-08T05:15:16.420Z,1016.32
2018-05-08T05:16:16.395Z,1016.27
2018-05-08T05:17:16.372Z,1016.18
2018-05-08T05:18:16.350Z,1016.13
2018-05-08T05:19:16.331Z,1016.24
2018-05-08T05:20:16.306Z,1016.30
2018-05-08T05:21:16.286Z,1016.35
2018-05-08T05:22:16.269Z,1016.51
2018-05-08T05:23:16.252Z,1016.55
2018-05-08T05:24:16.229Z,1016.54
2018-05-08T05:25:16.205Z,1016.65
2018-05-08T05:26:16.185Z,1016.85
2018-05-08T05:27:16.170Z,1017.18
2018-05-08T05:28:16.143Z,1017.10
2018-05-08T05:29:16.122Z,1016.55
2018-05-08T05:30:16.102Z,1016.26
2018-05-08T05:31:16.088Z,1016.22
2018-05-08T05:32:16.071Z,1016.18
2018-05-08T05:33:16.044Z,1016.18
2018-05-08T05:34:16.028Z,1016.23
2018-05-08T05:35:16.002Z,1016.22
2018-05-08T05:36:15.983Z,1016.20
2018-05-08T05:37:15.973Z,1016.21
2018-05-08T05:38:15.973Z,1016.23
2018-05-08T05:39:15.925Z,1016.24
2018-05-08T05:40:15.914Z,1016.27
2018-05-08T05:41:15.928Z,1016.26
2018-05-08T05:42:15.871Z,1016.27
2018-05-08T05:43:15.849Z,1016.26
2018-05-08T05:44:15.833Z,1016.25
2018-05-08T05:45:15.816Z,1016.21
2018-05-08T05:46:15.789Z,1016.32
2018-05-08T05:47:15.772Z,1016.28
2018-05-08T05:48:15.752Z,1016.28
2018-05-08T05:49:15.729Z,1016.25
2018-05-08T05:50:15.711Z,1016.22
2018-05-08T05:51:15.693Z,1016.23
2018-05-08T05:52:15.675Z,1016.21
2018-05-08T05:53:15.709Z,1016.19
2018-05-08T05:54:15.634Z,1016.18
2018-05-08T05:55:15.624Z,1016.19
2018-05-08T05:56:15.597Z,1016.23
2018-05-08T05:57:15.582Z,1016.24
2018-05-08T05:58:15.575Z,1016.27
2018-05-08T05:59:15.767Z,1016.17
2018-05-08T06:00:15.524Z,1016.24
2018-05-08T06:01:15.505Z,1016.23
2018-05-08T06:02:15.492Z,1016.31
2018-05-08T06:03:15.471Z,1016.20
2018-05-08T06:04:15.450Z,1016.34
2018-05-08T06:05:15.429Z,1016.42
2018-05-08T06:06:15.423Z,1016.54
2018-05-08T06:07:15.394Z,1016.57
2018-05-08T06:08:15.376Z,1016.65
2018-05-08T06:09:15.358Z,1016.74
2018-05-08T06:10:15.540Z,1016.75
2018-05-08T06:11:15.323Z,1016.91
2018-05-08T06:12:15.304Z,1016.89
2018-05-08T06:13:15.284Z,1016.79
2018-05-08T06:14:15.470Z,1016.89
2018-05-08T06:15:15.252Z,1016.99
2018-05-08T06:16:15.433Z,1017.23
2018-05-08T06:17:15.235Z,1017.42
2018-05-08T06:18:15.396Z,1017.40
2018-05-08T06:19:15.183Z,1017.28
2018-05-08T06:20:15.199Z,1017.30
2018-05-08T06:21:15.193Z,1017.42
2018-05-08T06:22:15.124Z,1017.46
2018-05-08T06:23:15.108Z,1017.58
2018-05-08T06:24:15.090Z,1017.62
2018-05-08T06:25:15.072Z,1017.56
2018-05-08T06:26:15.091Z,1017.52
2018-05-08T06:27:15.044Z,1017.34
2018-05-08T06:28:15.021Z,1017.09
2018-05-08T06:29:15.002Z,1017.32
2018-05-08T06:30:14.986Z,1017.44
2018-05-08T06:31:14.969Z,1017.45
2018-05-08T06:32:14.953Z,1017.36
2018-05-08T06:33:14.938Z,1017.31
2018-05-08T06:34:14.918Z,1017.28
2018-05-08T06:35:14.901Z,1017.43
2018-05-08T06:36:14.883Z,1017.50
2018-05-08T06:37:14.866Z,1017.34
2018-05-08T06:38:14.863Z,1017.25
2018-05-08T06:39:14.843Z,1017.22
2018-05-08T06:40:14.819Z,1017.31
2018-05-08T06:41:14.805Z,1017.39
2018-05-08T06:42:14.801Z,1017.24
2018-05-08T06:43:14.768Z,1017.27
2018-05-08T06:44:14.810Z,1017.43
2018-05-08T06:45:14.738Z,1017.33
2018-05-08T06:46:14.718Z,1017.26
2018-05-08T06:47:14.709Z,1017.27
2018-05-08T06:48:14.889Z,1017.18
2018-05-08T06:49:14.671Z,1017.25
2018-05-08T06:50:14.658Z,1017.31
2018-05-08T06:51:14.848Z,1017.22
2018-05-08T06:52:14.831Z,1017.17
2018-05-08T06:53:15.618Z,1017.11
2018-05-08T06:54:14.817Z,1017.20
2018-05-08T06:55:14.786Z,1017.17
2018-05-08T06:56:14.766Z,1017.11
2018-05-08T06:57:14.751Z,1017.13
2018-05-08T06:58:14.530Z,1017.15
2018-05-08T06:59:14.719Z,1017.07
2018-05-08T07:00:14.511Z,1017.07
2018-05-08T07:01:14.687Z,1017.08
2018-05-08T07:02:14.669Z,1017.15
2018-05-08T07:03:14.455Z,1017.12
2018-05-08T07:04:14.436Z,1017.03
2018-05-08T07:05:14.424Z,1017.08
2018-05-08T07:06:14.406Z,1017.05
2018-05-08T07:07:14.391Z,1016.97
2018-05-08T07:08:14.377Z,1017.06
2018-05-08T07:09:14.439Z,1017.07
2018-05-08T07:10:14.348Z,1016.99
2018-05-08T07:11:14.533Z,1016.98
2018-05-08T07:12:14.316Z,1016.95
2018-05-08T07:13:14.305Z,1016.97
2018-05-08T07:14:14.287Z,1016.90
2018-05-08T07:15:14.274Z,1016.93
2018-05-08T07:16:14.389Z,1016.91
2018-05-08T07:17:14.241Z,1016.93
2018-05-08T07:18:14.227Z,1016.89
2018-05-08T07:19:14.213Z,1016.87
2018-05-08T07:20:14.205Z,1016.85
2018-05-08T07:21:14.223Z,1016.85
2018-05-08T07:22:14.169Z,1016.82
2018-05-08T07:23:14.155Z,1016.82
2018-05-08T07:24:14.143Z,1016.75
2018-05-08T07:25:14.126Z,1016.78
2018-05-08T07:26:14.112Z,1016.70
2018-05-08T07:27:14.104Z,1016.68
2018-05-08T07:28:14.084Z,1016.62
2018-05-08T07:29:14.076Z,1016.70
2018-05-08T07:30:14.056Z,1016.70
2018-05-08T07:31:14.041Z,1016.66
2018-05-08T07:32:14.030Z,1016.66
2018-05-08T07:33:14.013Z,1016.62
2018-05-08T07:34:13.999Z,1016.55
2018-05-08T07:35:13.989Z,1016.55
2018-05-08T07:36:13.972Z,1016.57
2018-05-08T07:37:13.957Z,1016.49
2018-05-08T07:38:14.225Z,1016.55
2018-05-08T07:39:13.930Z,1016.50
2018-05-08T07:40:13.941Z,1016.46
2018-05-08T07:41:13.902Z,1016.42
2018-05-08T07:42:14.091Z,1016.47
2018-05-08T07:43:14.083Z,1016.42
2018-05-08T07:44:14.071Z,1016.48
2018-05-08T07:45:13.850Z,1016.50
2018-05-08T07:46:13.867Z,1016.46
2018-05-08T07:47:13.821Z,1016.45
2018-05-08T07:48:13.808Z,1016.42
2018-05-08T07:49:13.797Z,1016.38
2018-05-08T07:50:13.983Z,1016.38
2018-05-08T07:51:13.768Z,1016.40
2018-05-08T07:52:13.958Z,1016.48
2018-05-08T07:53:13.944Z,1016.42
2018-05-08T07:54:13.956Z,1016.48
2018-05-08T07:55:13.719Z,1016.51
2018-05-08T07:56:13.910Z,1016.50
2018-05-08T07:57:13.701Z,1016.49
2018-05-08T07:58:13.684Z,1016.50
2018-05-08T07:59:13.664Z,1016.49
2018-05-08T08:00:13.651Z,1016.47
2018-05-08T08:01:13.640Z,1016.47
2018-05-08T08:02:13.626Z,1016.45
2018-05-08T08:03:13.620Z,1016.46
2018-05-08T08:04:13.600Z,1016.41
2018-05-08T08:05:13.592Z,1016.43
2018-05-08T08:06:13.575Z,1016.43
2018-05-08T08:07:13.566Z,1016.39
2018-05-08T08:08:13.593Z,1016.37
2018-05-08T08:09:13.536Z,1016.37
2018-05-08T08:10:13.524Z,1016.23
2018-05-08T08:11:13.515Z,1016.41
2018-05-08T08:12:13.704Z,1016.37
2018-05-08T08:13:13.488Z,1016.36
2018-05-08T08:14:13.477Z,1016.36
2018-05-08T08:15:13.463Z,1016.30
2018-05-08T08:16:13.451Z,1016.38
2018-05-08T08:17:13.437Z,1016.33
2018-05-08T08:18:13.430Z,1016.36
2018-05-08T08:19:13.414Z,1016.39
2018-05-08T08:20:13.403Z,1016.40
2018-05-08T08:21:13.397Z,1016.26
2018-05-08T08:22:13.385Z,1016.19
2018-05-08T08:23:13.366Z,1016.35
2018-05-08T08:24:13.361Z,1016.26
2018-05-08T08:25:13.342Z,1016.30
2018-05-08T08:26:13.331Z,1016.24
2018-05-08T08:27:13.523Z,1016.26
2018-05-08T08:28:13.308Z,1016.27
2018-05-08T08:29:13.339Z,1016.19
2018-05-08T08:30:13.293Z,1016.19
2018-05-08T08:31:13.273Z,1016.20
2018-05-08T08:32:13.261Z,1016.21
2018-05-08T08:33:13.248Z,1016.10
2018-05-08T08:34:13.247Z,1016.13
2018-05-08T08:35:13.226Z,1016.14
2018-05-08T08:36:13.222Z,1016.13
2018-05-08T08:37:13.205Z,1016.06
2018-05-08T08:38:13.195Z,1016.07
2018-05-08T08:39:13.180Z,1016.04
2018-05-08T08:40:13.173Z,1016.07
2018-05-08T08:41:13.197Z,1015.95
2018-05-08T08:42:13.160Z,1015.99
2018-05-08T08:43:13.160Z,1015.80
2018-05-08T08:44:13.172Z,1015.87
2018-05-08T08:45:13.135Z,1015.91
2018-05-08T08:46:13.142Z,1015.91
2018-05-08T08:47:13.092Z,1015.95
2018-05-08T08:48:13.151Z,1015.88
2018-05-08T08:49:13.067Z,1015.91
2018-05-08T08:50:13.061Z,1015.93
2018-05-08T08:51:13.055Z,1015.90
2018-05-08T08:52:13.042Z,1015.83
2018-05-08T08:53:13.040Z,1015.89
2018-05-08T08:54:13.016Z,1015.84
2018-05-08T08:55:13.001Z,1015.90
2018-05-08T08:56:12.996Z,1015.89
2018-05-08T08:57:12.979Z,1015.89
2018-05-08T08:58:12.967Z,1015.95
2018-05-08T08:59:12.957Z,1015.99
2018-05-08T09:00:12.948Z,1015.99
2018-05-08T09:01:12.935Z,1016.06
2018-05-08T09:02:12.925Z,1016.10
2018-05-08T09:03:12.954Z,1016.13
2018-05-08T09:04:12.920Z,1016.10
2018-05-08T09:05:12.891Z,1016.09
2018-05-08T09:06:12.897Z,1016.05
2018-05-08T09:07:12.911Z,1015.88
2018-05-08T09:08:12.874Z,1015.69
2018-05-08T09:09:12.848Z,1015.55
2018-05-08T09:10:12.847Z,1015.45
2018-05-08T09:11:12.997Z,1015.41
2018-05-08T09:12:12.839Z,1015.34
2018-05-08T09:13:12.812Z,1015.26
2018-05-08T09:14:12.842Z,1015.31
2018-05-08T09:15:12.795Z,1015.19
2018-05-08T09:16:12.777Z,1015.31
2018-05-08T09:17:12.768Z,1015.35
2018-05-08T09:18:12.782Z,1015.47
2018-05-08T09:19:12.744Z,1015.88
2018-05-08T09:20:12.734Z,1015.72
2018-05-08T09:21:12.724Z,1015.13
2018-05-08T09:22:12.717Z,1014.66
2018-05-08T09:23:12.763Z,1014.62
2018-05-08T09:24:12.691Z,1014.60
2018-05-08T09:25:12.679Z,1014.50
2018-05-08T09:26:12.669Z,1014.39
2018-05-08T09:27:12.659Z,1014.41
2018-05-08T09:28:12.652Z,1014.35
2018-05-08T09:29:12.637Z,1014.26
2018-05-08T09:30:12.627Z,1014.27
2018-05-08T09:31:12.617Z,1014.25
2018-05-08T09:32:12.611Z,1014.27
2018-05-08T09:33:12.599Z,1014.26
2018-05-08T09:34:12.592Z,1014.24
2018-05-08T09:35:12.582Z,1014.19
2018-05-08T09:36:12.565Z,1014.19
2018-05-08T09:37:12.571Z,1014.13
2018-05-08T09:38:12.549Z,1014.28
2018-05-08T09:39:12.534Z,1014.22
2018-05-08T09:40:12.532Z,1014.19
2018-05-08T09:41:12.518Z,1014.25
2018-05-08T09:42:12.503Z,1014.12
2018-05-08T09:43:12.495Z,1014.16
2018-05-08T09:44:12.484Z,1014.10
2018-05-08T09:45:12.474Z,1014.15
2018-05-08T09:46:12.466Z,1014.04
2018-05-08T09:47:12.453Z,1014.10
2018-05-08T09:48:12.445Z,1014.15
2018-05-08T09:49:12.512Z,1014.12
2018-05-08T09:50:12.422Z,1014.07
2018-05-08T09:51:12.419Z,1013.97
2018-05-08T09:52:12.402Z,1013.97
2018-05-08T09:53:12.395Z,1013.99
2018-05-08T09:54:12.453Z,1013.93
2018-05-08T09:55:12.395Z,1013.91
2018-05-08T09:56:12.365Z,1013.94
2018-05-08T09:57:12.351Z,1013.93
2018-05-08T09:58:12.344Z,1013.95
2018-05-08T09:59:12.332Z,1013.85
2018-05-08T10:00:12.322Z,1013.92
2018-05-08T10:01:12.312Z,1013.86
2018-05-08T10:02:12.301Z,1013.80
2018-05-08T10:03:12.343Z,1013.82
2018-05-08T10:04:12.286Z,1013.80
2018-05-08T10:05:12.276Z,1013.86
2018-05-08T10:06:12.260Z,1013.85
2018-05-08T10:07:12.253Z,1013.87
2018-05-08T10:08:12.241Z,1013.84
2018-05-08T10:09:12.229Z,1013.75
2018-05-08T10:10:12.220Z,1013.78
2018-05-08T10:11:12.215Z,1013.73
2018-05-08T10:12:12.202Z,1013.70
2018-05-08T10:13:12.190Z,1013.71
2018-05-08T10:14:12.180Z,1013.70
2018-05-08T10:15:12.171Z,1013.73
2018-05-08T10:16:12.161Z,1013.64
2018-05-08T10:17:12.152Z,1013.67
2018-05-08T10:18:12.144Z,1013.73
2018-05-08T10:19:12.132Z,1013.64
2018-05-08T10:20:12.143Z,1013.63
2018-05-08T10:21:12.113Z,1013.65
2018-05-08T10:22:12.107Z,1013.60
2018-05-08T10:23:12.100Z,1013.64
2018-05-08T10:24:12.084Z,1013.51
2018-05-08T10:25:12.073Z,1013.62
2018-05-08T10:26:12.064Z,1013.63
2018-05-08T10:27:12.054Z,1013.44
2018-05-08T10:28:12.046Z,1013.62
2018-05-08T10:29:12.035Z,1013.11
2018-05-08T10:30:12.027Z,1013.50
2018-05-08T10:31:12.020Z,1013.64
2018-05-08T10:32:12.006Z,1013.62
2018-05-08T10:33:11.996Z,1013.59
2018-05-08T10:34:12.009Z,1013.58
2018-05-08T10:35:11.978Z,1013.59
2018-05-08T10:36:11.968Z,1013.54
2018-05-08T10:37:11.958Z,1013.53
2018-05-08T10:38:11.948Z,1013.54
2018-05-08T10:39:11.938Z,1013.29
2018-05-08T10:40:11.928Z,1013.49
2018-05-08T10:41:11.920Z,1013.47
2018-05-08T10:42:11.909Z,1013.50
2018-05-08T10:43:11.898Z,1013.54
2018-05-08T10:44:11.896Z,1013.37
2018-05-08T10:45:11.881Z,1013.59
2018-05-08T10:46:11.870Z,1013.56
2018-05-08T10:47:11.860Z,1013.58
2018-05-08T10:48:11.855Z,1013.46
2018-05-08T10:49:11.845Z,1013.48
2018-05-08T10:50:11.832Z,1013.51
2018-05-08T10:51:11.823Z,1013.36
2018-05-08T10:52:11.815Z,1013.52
2018-05-08T10:53:11.807Z,1013.58
2018-05-08T10:54:11.794Z,1013.59
2018-05-08T10:55:11.785Z,1013.52
2018-05-08T10:56:11.781Z,1013.48
2018-05-08T10:57:11.766Z,1013.54
2018-05-08T10:58:11.758Z,1013.58
2018-05-08T10:59:11.748Z,1013.62
2018-05-08T11:00:11.739Z,1013.72
2018-05-08T11:01:11.740Z,1013.65
2018-05-08T11:02:11.722Z,1013.69
2018-05-08T11:03:11.712Z,1013.64
2018-05-08T11:04:11.705Z,1013.73
2018-05-08T11:05:11.693Z,1013.79
2018-05-08T11:06:11.685Z,1013.78
2018-05-08T11:07:11.681Z,1013.75
2018-05-08T11:08:11.678Z,1013.87
2018-05-08T11:09:11.657Z,1013.92
2018-05-08T11:10:11.648Z,1013.90
2018-05-08T11:11:11.648Z,1014.02
2018-05-08T11:12:11.630Z,1013.94
2018-05-08T11:13:11.622Z,1014.05
2018-05-08T11:14:11.610Z,1014.05
2018-05-08T11:15:11.602Z,1014.03
2018-05-08T11:16:11.592Z,1013.77
2018-05-08T11:17:11.585Z,1013.95
2018-05-08T11:18:11.574Z,1014.08
2018-05-08T11:19:11.569Z,1014.07
2018-05-08T11:20:11.557Z,1014.07
2018-05-08T11:21:11.547Z,1014.11
2018-05-08T11:22:11.538Z,1014.09
2018-05-08T11:23:11.597Z,1014.11
2018-05-08T11:24:11.541Z,1014.12
2018-05-08T11:25:11.511Z,1014.12
2018-05-08T11:26:11.502Z,1013.85
2018-05-08T11:27:11.495Z,1014.03
2018-05-08T11:28:11.486Z,1013.98
2018-05-08T11:29:11.474Z,1014.02
2018-05-08T11:30:11.465Z,1013.88
2018-05-08T11:31:11.458Z,1013.86
2018-05-08T11:32:11.450Z,1013.75
2018-05-08T11:33:11.475Z,1013.93
2018-05-08T11:34:11.429Z,1013.94
2018-05-08T11:35:11.420Z,1013.84
2018-05-08T11:36:11.414Z,1013.91
2018-05-08T11:37:11.412Z,1013.92
2018-05-08T11:38:11.393Z,1013.84
2018-05-08T11:39:11.462Z,1013.80
2018-05-08T11:40:11.383Z,1013.83
2018-05-08T11:41:11.364Z,1013.69
2018-05-08T11:42:11.359Z,1013.70
2018-05-08T11:43:11.349Z,1013.71
2018-05-08T11:44:11.347Z,1013.68
2018-05-08T11:45:11.329Z,1013.68
2018-05-08T11:46:11.324Z,1013.47
2018-05-08T11:47:11.319Z,1013.57
2018-05-08T11:48:11.306Z,1013.57
2018-05-08T11:49:11.293Z,1013.30
2018-05-08T11:50:11.289Z,1013.54
2018-05-08T11:51:11.277Z,1013.51
2018-05-08T11:52:11.267Z,1013.44
2018-05-08T11:53:11.257Z,1013.30
2018-05-08T11:54:11.249Z,1013.30
2018-05-08T11:55:11.247Z,1013.21
2018-05-08T11:56:11.234Z,1013.20
2018-05-08T11:57:11.222Z,1013.26
2018-05-08T11:58:11.270Z,1013.18
2018-05-08T11:59:11.204Z,1013.17
2018-05-08T12:00:11.206Z,1013.16
2018-05-08T12:01:11.187Z,1013.07
2018-05-08T12:02:11.176Z,1013.10
2018-05-08T12:03:11.168Z,1013.07
2018-05-08T12:04:11.166Z,1013.03
2018-05-08T12:05:11.150Z,1013.02